sensor_id;sensor_type;location;lat;lon;timestamp;P1;durP1;ratioP1;P2;durP2;ratioP2
19084;SDS011;9675;51.538;6.728;2023-09-30T00:00:14;5.80;;;1.70;;
19084;SDS011;9675;51.538;6.728;2023-09-30T00:02:41;7.80;;;1.73;;
19084;SDS011;9675;51.538;6.728;2023-09-30T00:05:09;5.17;;;1.87;;
19084;SDS011;9675;51.538;6.728;2023-09-30T00:07:38;4.30;;;1.47;;
19084;SDS011;9675;51.538;6.728;2023-09-30T00:10:05;7.27;;;1.87;;
19084;SDS011;9675;51.538;6.728;2023-09-30T00:12:33;7.57;;;1.97;;
19084;SDS011;9675;51.538;6.728;2023-09-30T00:15:00;4.43;;;1.40;;
19084;SDS011;9675;51.538;6.728;2023-09-30T00:17:29;10.70;;;2.20;;
19084;SDS011;9675;51.538;6.728;2023-09-30T00:19:56;8.03;;;2.10;;
19084;SDS011;9675;51.538;6.728;2023-09-30T00:22:24;7.23;;;1.77;;
19084;SDS011;9675;51.538;6.728;2023-09-30T00:24:52;6.20;;;1.70;;
19084;SDS011;9675;51.538;6.728;2023-09-30T00:27:20;6.83;;;1.67;;
19084;SDS011;9675;51.538;6.728;2023-09-30T00:29:47;5.87;;;1.60;;
19084;SDS011;9675;51.538;6.728;2023-09-30T00:32:14;6.40;;;1.93;;
19084;SDS011;9675;51.538;6.728;2023-09-30T00:34:41;3.43;;;1.73;;
19084;SDS011;9675;51.538;6.728;2023-09-30T00:37:08;6.07;;;1.87;;
19084;SDS011;9675;51.538;6.728;2023-09-30T00:39:35;6.03;;;1.67;;
19084;SDS011;9675;51.538;6.728;2023-09-30T00:42:03;6.90;;;1.77;;
19084;SDS011;9675;51.538;6.728;2023-09-30T00:44:30;7.67;;;2.27;;
19084;SDS011;9675;51.538;6.728;2023-09-30T00:46:58;5.83;;;1.50;;
19084;SDS011;9675;51.538;6.728;2023-09-30T00:49:26;6.33;;;1.97;;
19084;SDS011;9675;51.538;6.728;2023-09-30T00:51:55;6.07;;;1.53;;
19084;SDS011;9675;51.538;6.728;2023-09-30T00:54:23;8.50;;;2.20;;
19084;SDS011;9675;51.538;6.728;2023-09-30T00:56:52;4.70;;;1.40;;
19084;SDS011;9675;51.538;6.728;2023-09-30T00:59:24;7.97;;;2.07;;
19084;SDS011;9675;51.538;6.728;2023-09-30T01:01:51;5.93;;;1.73;;
19084;SDS011;9675;51.538;6.728;2023-09-30T01:04:22;5.77;;;1.97;;
19084;SDS011;9675;51.538;6.728;2023-09-30T01:06:51;4.47;;;1.77;;
19084;SDS011;9675;51.538;6.728;2023-09-30T01:09:18;4.70;;;1.60;;
19084;SDS011;9675;51.538;6.728;2023-09-30T01:11:46;5.47;;;1.43;;
19084;SDS011;9675;51.538;6.728;2023-09-30T01:14:25;5.50;;;1.70;;
19084;SDS011;9675;51.538;6.728;2023-09-30T01:16:53;9.50;;;2.77;;
19084;SDS011;9675;51.538;6.728;2023-09-30T01:19:20;8.73;;;2.13;;
19084;SDS011;9675;51.538;6.728;2023-09-30T01:21:50;6.33;;;2.07;;
19084;SDS011;9675;51.538;6.728;2023-09-30T01:24:20;5.63;;;2.03;;
19084;SDS011;9675;51.538;6.728;2023-09-30T01:26:47;8.37;;;2.07;;
19084;SDS011;9675;51.538;6.728;2023-09-30T01:29:14;8.17;;;2.13;;
19084;SDS011;9675;51.538;6.728;2023-09-30T01:31:42;12.40;;;2.20;;
19084;SDS011;9675;51.538;6.728;2023-09-30T01:34:12;7.20;;;2.43;;
19084;SDS011;9675;51.538;6.728;2023-09-30T01:36:40;7.03;;;1.97;;
19084;SDS011;9675;51.538;6.728;2023-09-30T01:39:09;8.23;;;2.80;;
19084;SDS011;9675;51.538;6.728;2023-09-30T01:41:37;3.93;;;1.90;;
19084;SDS011;9675;51.538;6.728;2023-09-30T01:44:04;4.43;;;1.73;;
19084;SDS011;9675;51.538;6.728;2023-09-30T01:46:32;7.47;;;2.53;;
19084;SDS011;9675;51.538;6.728;2023-09-30T01:48:59;6.80;;;2.40;;
19084;SDS011;9675;51.538;6.728;2023-09-30T01:51:26;3.17;;;1.90;;
19084;SDS011;9675;51.538;6.728;2023-09-30T01:53:54;6.07;;;2.10;;
19084;SDS011;9675;51.538;6.728;2023-09-30T01:56:23;6.07;;;2.10;;
19084;SDS011;9675;51.538;6.728;2023-09-30T01:58:50;6.90;;;2.17;;
19084;SDS011;9675;51.538;6.728;2023-09-30T02:01:17;7.23;;;2.60;;
19084;SDS011;9675;51.538;6.728;2023-09-30T02:03:44;4.03;;;1.47;;
19084;SDS011;9675;51.538;6.728;2023-09-30T02:06:11;5.73;;;1.90;;
19084;SDS011;9675;51.538;6.728;2023-09-30T02:08:38;8.00;;;2.17;;
19084;SDS011;9675;51.538;6.728;2023-09-30T02:11:05;13.50;;;2.83;;
19084;SDS011;9675;51.538;6.728;2023-09-30T02:13:34;7.40;;;2.13;;
19084;SDS011;9675;51.538;6.728;2023-09-30T02:16:01;3.70;;;2.10;;
19084;SDS011;9675;51.538;6.728;2023-09-30T02:18:28;4.43;;;1.83;;
19084;SDS011;9675;51.538;6.728;2023-09-30T02:20:57;7.10;;;2.20;;
19084;SDS011;9675;51.538;6.728;2023-09-30T02:23:24;8.17;;;2.40;;
19084;SDS011;9675;51.538;6.728;2023-09-30T02:25:51;5.83;;;2.10;;
19084;SDS011;9675;51.538;6.728;2023-09-30T02:28:18;7.50;;;2.17;;
19084;SDS011;9675;51.538;6.728;2023-09-30T02:30:47;6.07;;;2.13;;
19084;SDS011;9675;51.538;6.728;2023-09-30T02:33:14;5.23;;;2.30;;
19084;SDS011;9675;51.538;6.728;2023-09-30T02:35:43;4.93;;;1.97;;
19084;SDS011;9675;51.538;6.728;2023-09-30T02:38:11;6.00;;;2.13;;
19084;SDS011;9675;51.538;6.728;2023-09-30T02:40:41;5.97;;;1.90;;
19084;SDS011;9675;51.538;6.728;2023-09-30T02:43:11;8.23;;;2.33;;
19084;SDS011;9675;51.538;6.728;2023-09-30T02:45:38;9.07;;;2.00;;
19084;SDS011;9675;51.538;6.728;2023-09-30T02:48:07;5.50;;;1.80;;
19084;SDS011;9675;51.538;6.728;2023-09-30T02:50:34;3.30;;;1.60;;
19084;SDS011;9675;51.538;6.728;2023-09-30T02:53:01;6.77;;;2.23;;
19084;SDS011;9675;51.538;6.728;2023-09-30T02:55:29;5.80;;;1.97;;
19084;SDS011;9675;51.538;6.728;2023-09-30T02:57:56;7.70;;;1.90;;
19084;SDS011;9675;51.538;6.728;2023-09-30T03:00:24;6.07;;;1.80;;
19084;SDS011;9675;51.538;6.728;2023-09-30T03:02:51;4.77;;;1.90;;
19084;SDS011;9675;51.538;6.728;2023-09-30T03:05:21;9.67;;;2.33;;
19084;SDS011;9675;51.538;6.728;2023-09-30T03:07:49;4.30;;;1.53;;
19084;SDS011;9675;51.538;6.728;2023-09-30T03:10:16;6.50;;;2.40;;
19084;SDS011;9675;51.538;6.728;2023-09-30T03:12:45;3.80;;;1.50;;
19084;SDS011;9675;51.538;6.728;2023-09-30T03:15:13;7.10;;;2.33;;
19084;SDS011;9675;51.538;6.728;2023-09-30T03:17:41;6.03;;;2.20;;
19084;SDS011;9675;51.538;6.728;2023-09-30T03:20:08;5.33;;;1.90;;
19084;SDS011;9675;51.538;6.728;2023-09-30T03:22:41;7.83;;;2.17;;
19084;SDS011;9675;51.538;6.728;2023-09-30T03:25:09;10.37;;;2.50;;
19084;SDS011;9675;51.538;6.728;2023-09-30T03:27:37;3.00;;;1.63;;
19084;SDS011;9675;51.538;6.728;2023-09-30T03:30:05;2.93;;;1.40;;
19084;SDS011;9675;51.538;6.728;2023-09-30T03:32:34;6.07;;;2.00;;
19084;SDS011;9675;51.538;6.728;2023-09-30T03:35:03;6.20;;;1.77;;
19084;SDS011;9675;51.538;6.728;2023-09-30T03:37:31;8.60;;;1.70;;
19084;SDS011;9675;51.538;6.728;2023-09-30T03:40:01;9.50;;;2.37;;
19084;SDS011;9675;51.538;6.728;2023-09-30T03:42:37;4.60;;;1.40;;
19084;SDS011;9675;51.538;6.728;2023-09-30T03:45:05;4.10;;;1.60;;
19084;SDS011;9675;51.538;6.728;2023-09-30T03:47:34;8.17;;;2.83;;
19084;SDS011;9675;51.538;6.728;2023-09-30T03:50:02;3.53;;;1.67;;
19084;SDS011;9675;51.538;6.728;2023-09-30T03:52:29;5.57;;;1.90;;
19084;SDS011;9675;51.538;6.728;2023-09-30T03:54:58;9.17;;;2.40;;
19084;SDS011;9675;51.538;6.728;2023-09-30T03:57:30;6.90;;;1.83;;
19084;SDS011;9675;51.538;6.728;2023-09-30T03:59:58;7.13;;;1.80;;
19084;SDS011;9675;51.538;6.728;2023-09-30T04:02:25;3.23;;;1.83;;
19084;SDS011;9675;51.538;6.728;2023-09-30T04:04:53;7.43;;;1.90;;
19084;SDS011;9675;51.538;6.728;2023-09-30T04:07:21;7.37;;;2.60;;
19084;SDS011;9675;51.538;6.728;2023-09-30T04:09:48;9.17;;;2.10;;
19084;SDS011;9675;51.538;6.728;2023-09-30T04:12:16;7.50;;;2.47;;
19084;SDS011;9675;51.538;6.728;2023-09-30T04:14:43;5.73;;;1.90;;
19084;SDS011;9675;51.538;6.728;2023-09-30T04:17:10;6.57;;;2.60;;
19084;SDS011;9675;51.538;6.728;2023-09-30T04:19:37;5.33;;;2.00;;
19084;SDS011;9675;51.538;6.728;2023-09-30T04:22:04;6.20;;;2.40;;
19084;SDS011;9675;51.538;6.728;2023-09-30T04:24:31;7.60;;;2.17;;
19084;SDS011;9675;51.538;6.728;2023-09-30T04:26:59;3.27;;;1.63;;
19084;SDS011;9675;51.538;6.728;2023-09-30T04:29:30;5.27;;;2.10;;
19084;SDS011;9675;51.538;6.728;2023-09-30T04:31:57;3.70;;;1.67;;
19084;SDS011;9675;51.538;6.728;2023-09-30T04:34:25;7.57;;;2.47;;
19084;SDS011;9675;51.538;6.728;2023-09-30T04:36:52;6.10;;;2.43;;
19084;SDS011;9675;51.538;6.728;2023-09-30T04:39:19;4.80;;;2.13;;
19084;SDS011;9675;51.538;6.728;2023-09-30T04:41:46;6.33;;;2.20;;
19084;SDS011;9675;51.538;6.728;2023-09-30T04:44:14;5.27;;;2.00;;
19084;SDS011;9675;51.538;6.728;2023-09-30T04:46:42;7.07;;;2.50;;
19084;SDS011;9675;51.538;6.728;2023-09-30T04:49:11;8.40;;;2.37;;
19084;SDS011;9675;51.538;6.728;2023-09-30T04:51:39;4.57;;;2.17;;
19084;SDS011;9675;51.538;6.728;2023-09-30T04:54:06;6.97;;;1.80;;
19084;SDS011;9675;51.538;6.728;2023-09-30T04:56:34;8.53;;;2.03;;
19084;SDS011;9675;51.538;6.728;2023-09-30T04:59:01;5.33;;;1.90;;
19084;SDS011;9675;51.538;6.728;2023-09-30T05:01:29;3.03;;;1.37;;
19084;SDS011;9675;51.538;6.728;2023-09-30T05:03:57;4.47;;;2.10;;
19084;SDS011;9675;51.538;6.728;2023-09-30T05:06:24;5.03;;;1.80;;
19084;SDS011;9675;51.538;6.728;2023-09-30T05:08:51;5.43;;;2.10;;
19084;SDS011;9675;51.538;6.728;2023-09-30T05:11:20;6.27;;;2.07;;
19084;SDS011;9675;51.538;6.728;2023-09-30T05:13:47;10.73;;;2.00;;
19084;SDS011;9675;51.538;6.728;2023-09-30T05:16:14;9.87;;;2.33;;
19084;SDS011;9675;51.538;6.728;2023-09-30T05:18:41;7.37;;;2.57;;
19084;SDS011;9675;51.538;6.728;2023-09-30T05:21:10;13.40;;;2.50;;
19084;SDS011;9675;51.538;6.728;2023-09-30T05:23:37;6.73;;;2.23;;
19084;SDS011;9675;51.538;6.728;2023-09-30T05:26:04;9.70;;;2.27;;
19084;SDS011;9675;51.538;6.728;2023-09-30T05:28:32;5.33;;;2.53;;
19084;SDS011;9675;51.538;6.728;2023-09-30T05:30:59;5.70;;;1.90;;
19084;SDS011;9675;51.538;6.728;2023-09-30T05:33:27;6.47;;;2.50;;
19084;SDS011;9675;51.538;6.728;2023-09-30T05:35:55;4.07;;;2.20;;
19084;SDS011;9675;51.538;6.728;2023-09-30T05:38:24;6.67;;;2.30;;
19084;SDS011;9675;51.538;6.728;2023-09-30T05:40:51;7.17;;;2.10;;
19084;SDS011;9675;51.538;6.728;2023-09-30T05:43:19;4.93;;;1.57;;
19084;SDS011;9675;51.538;6.728;2023-09-30T05:45:46;4.30;;;1.77;;
19084;SDS011;9675;51.538;6.728;2023-09-30T05:48:19;8.67;;;1.80;;
19084;SDS011;9675;51.538;6.728;2023-09-30T05:50:46;6.73;;;1.73;;
19084;SDS011;9675;51.538;6.728;2023-09-30T05:53:13;5.73;;;2.30;;
19084;SDS011;9675;51.538;6.728;2023-09-30T05:55:42;5.70;;;2.30;;
19084;SDS011;9675;51.538;6.728;2023-09-30T05:58:12;4.47;;;1.63;;
19084;SDS011;9675;51.538;6.728;2023-09-30T06:00:41;5.23;;;1.83;;
19084;SDS011;9675;51.538;6.728;2023-09-30T06:03:08;5.53;;;2.53;;
19084;SDS011;9675;51.538;6.728;2023-09-30T06:05:38;7.27;;;2.30;;
19084;SDS011;9675;51.538;6.728;2023-09-30T06:08:07;9.63;;;2.40;;
19084;SDS011;9675;51.538;6.728;2023-09-30T06:10:39;7.73;;;2.40;;
19084;SDS011;9675;51.538;6.728;2023-09-30T06:13:10;8.90;;;2.77;;
19084;SDS011;9675;51.538;6.728;2023-09-30T06:15:38;10.07;;;3.13;;
19084;SDS011;9675;51.538;6.728;2023-09-30T06:18:06;8.60;;;3.00;;
19084;SDS011;9675;51.538;6.728;2023-09-30T06:20:34;9.10;;;3.77;;
19084;SDS011;9675;51.538;6.728;2023-09-30T06:23:02;10.40;;;4.10;;
19084;SDS011;9675;51.538;6.728;2023-09-30T06:25:29;10.27;;;3.90;;
19084;SDS011;9675;51.538;6.728;2023-09-30T06:27:58;12.87;;;4.73;;
19084;SDS011;9675;51.538;6.728;2023-09-30T06:30:26;12.17;;;5.10;;
19084;SDS011;9675;51.538;6.728;2023-09-30T06:32:55;13.23;;;5.73;;
19084;SDS011;9675;51.538;6.728;2023-09-30T06:35:24;15.60;;;5.70;;
19084;SDS011;9675;51.538;6.728;2023-09-30T06:37:51;11.33;;;5.43;;
19084;SDS011;9675;51.538;6.728;2023-09-30T06:40:19;10.30;;;4.40;;
19084;SDS011;9675;51.538;6.728;2023-09-30T06:42:46;15.90;;;5.90;;
19084;SDS011;9675;51.538;6.728;2023-09-30T06:45:13;14.50;;;4.93;;
19084;SDS011;9675;51.538;6.728;2023-09-30T06:47:42;11.63;;;4.57;;
19084;SDS011;9675;51.538;6.728;2023-09-30T06:50:11;8.87;;;4.00;;
19084;SDS011;9675;51.538;6.728;2023-09-30T06:52:41;16.73;;;6.50;;
19084;SDS011;9675;51.538;6.728;2023-09-30T06:55:10;19.60;;;6.57;;
19084;SDS011;9675;51.538;6.728;2023-09-30T06:57:40;13.17;;;6.20;;
19084;SDS011;9675;51.538;6.728;2023-09-30T07:00:07;17.90;;;4.80;;
19084;SDS011;9675;51.538;6.728;2023-09-30T07:02:38;15.37;;;6.40;;
19084;SDS011;9675;51.538;6.728;2023-09-30T07:05:08;14.77;;;6.67;;
19084;SDS011;9675;51.538;6.728;2023-09-30T07:07:37;12.93;;;6.60;;
19084;SDS011;9675;51.538;6.728;2023-09-30T07:10:07;17.20;;;6.87;;
19084;SDS011;9675;51.538;6.728;2023-09-30T07:12:36;16.03;;;7.33;;
19084;SDS011;9675;51.538;6.728;2023-09-30T07:15:05;15.60;;;6.93;;
19084;SDS011;9675;51.538;6.728;2023-09-30T07:17:34;14.70;;;6.73;;
19084;SDS011;9675;51.538;6.728;2023-09-30T07:20:02;18.30;;;6.93;;
19084;SDS011;9675;51.538;6.728;2023-09-30T07:22:32;21.63;;;8.00;;
19084;SDS011;9675;51.538;6.728;2023-09-30T07:25:00;12.37;;;5.97;;
19084;SDS011;9675;51.538;6.728;2023-09-30T07:27:29;17.50;;;7.33;;
19084;SDS011;9675;51.538;6.728;2023-09-30T07:29:57;19.87;;;7.73;;
19084;SDS011;9675;51.538;6.728;2023-09-30T07:32:25;15.83;;;8.13;;
19084;SDS011;9675;51.538;6.728;2023-09-30T07:34:52;16.30;;;7.40;;
19084;SDS011;9675;51.538;6.728;2023-09-30T07:37:21;22.17;;;8.63;;
19084;SDS011;9675;51.538;6.728;2023-09-30T07:39:50;20.97;;;8.40;;
19084;SDS011;9675;51.538;6.728;2023-09-30T07:42:17;17.73;;;7.57;;
19084;SDS011;9675;51.538;6.728;2023-09-30T07:44:44;20.87;;;8.77;;
19084;SDS011;9675;51.538;6.728;2023-09-30T07:47:11;16.27;;;8.67;;
19084;SDS011;9675;51.538;6.728;2023-09-30T07:49:39;16.73;;;7.43;;
19084;SDS011;9675;51.538;6.728;2023-09-30T07:52:06;11.93;;;6.50;;
19084;SDS011;9675;51.538;6.728;2023-09-30T07:54:34;15.97;;;8.13;;
19084;SDS011;9675;51.538;6.728;2023-09-30T07:57:02;19.13;;;8.37;;
19084;SDS011;9675;51.538;6.728;2023-09-30T07:59:29;21.90;;;8.43;;
19084;SDS011;9675;51.538;6.728;2023-09-30T08:01:58;18.47;;;7.80;;
19084;SDS011;9675;51.538;6.728;2023-09-30T08:04:25;19.67;;;8.90;;
19084;SDS011;9675;51.538;6.728;2023-09-30T08:06:52;24.67;;;8.23;;
19084;SDS011;9675;51.538;6.728;2023-09-30T08:09:19;23.23;;;7.83;;
19084;SDS011;9675;51.538;6.728;2023-09-30T08:11:49;24.47;;;8.70;;
19084;SDS011;9675;51.538;6.728;2023-09-30T08:14:17;20.50;;;8.23;;
19084;SDS011;9675;51.538;6.728;2023-09-30T08:16:44;16.93;;;7.13;;
19084;SDS011;9675;51.538;6.728;2023-09-30T08:19:11;19.17;;;8.13;;
19084;SDS011;9675;51.538;6.728;2023-09-30T08:21:38;17.00;;;8.60;;
19084;SDS011;9675;51.538;6.728;2023-09-30T08:24:05;14.87;;;7.27;;
19084;SDS011;9675;51.538;6.728;2023-09-30T08:26:33;14.67;;;6.90;;
19084;SDS011;9675;51.538;6.728;2023-09-30T08:29:01;19.73;;;6.70;;
19084;SDS011;9675;51.538;6.728;2023-09-30T08:31:30;19.37;;;8.27;;
19084;SDS011;9675;51.538;6.728;2023-09-30T08:33:57;12.20;;;6.67;;
19084;SDS011;9675;51.538;6.728;2023-09-30T08:36:24;16.37;;;6.50;;
19084;SDS011;9675;51.538;6.728;2023-09-30T08:38:51;20.97;;;6.93;;
19084;SDS011;9675;51.538;6.728;2023-09-30T08:41:24;13.93;;;7.47;;
19084;SDS011;9675;51.538;6.728;2023-09-30T08:43:59;13.43;;;6.63;;
19084;SDS011;9675;51.538;6.728;2023-09-30T08:46:31;15.47;;;7.00;;
19084;SDS011;9675;51.538;6.728;2023-09-30T08:49:01;13.43;;;6.50;;
19084;SDS011;9675;51.538;6.728;2023-09-30T08:51:31;12.47;;;6.73;;
19084;SDS011;9675;51.538;6.728;2023-09-30T08:53:59;19.40;;;5.90;;
19084;SDS011;9675;51.538;6.728;2023-09-30T08:56:29;18.23;;;6.63;;
19084;SDS011;9675;51.538;6.728;2023-09-30T08:58:58;10.47;;;5.67;;
19084;SDS011;9675;51.538;6.728;2023-09-30T09:01:29;14.27;;;6.20;;
19084;SDS011;9675;51.538;6.728;2023-09-30T09:03:58;12.83;;;6.87;;
19084;SDS011;9675;51.538;6.728;2023-09-30T09:06:25;14.40;;;5.40;;
19084;SDS011;9675;51.538;6.728;2023-09-30T09:08:53;14.77;;;4.90;;
19084;SDS011;9675;51.538;6.728;2023-09-30T09:11:20;16.83;;;6.20;;
19084;SDS011;9675;51.538;6.728;2023-09-30T09:13:51;9.97;;;4.83;;
19084;SDS011;9675;51.538;6.728;2023-09-30T09:16:21;12.27;;;5.30;;
19084;SDS011;9675;51.538;6.728;2023-09-30T09:18:51;13.97;;;4.53;;
19084;SDS011;9675;51.538;6.728;2023-09-30T09:21:19;13.17;;;5.00;;
19084;SDS011;9675;51.538;6.728;2023-09-30T09:23:51;9.60;;;4.10;;
19084;SDS011;9675;51.538;6.728;2023-09-30T09:26:24;7.27;;;3.50;;
19084;SDS011;9675;51.538;6.728;2023-09-30T09:28:56;9.37;;;4.80;;
19084;SDS011;9675;51.538;6.728;2023-09-30T09:31:24;7.13;;;3.80;;
19084;SDS011;9675;51.538;6.728;2023-09-30T09:33:55;12.80;;;4.37;;
19084;SDS011;9675;51.538;6.728;2023-09-30T09:36:38;10.13;;;3.90;;
19084;SDS011;9675;51.538;6.728;2023-09-30T09:39:08;8.83;;;3.80;;
19084;SDS011;9675;51.538;6.728;2023-09-30T09:41:48;9.50;;;3.80;;
19084;SDS011;9675;51.538;6.728;2023-09-30T09:44:17;8.87;;;3.47;;
19084;SDS011;9675;51.538;6.728;2023-09-30T09:46:47;9.50;;;2.47;;
19084;SDS011;9675;51.538;6.728;2023-09-30T09:49:16;8.50;;;3.97;;
19084;SDS011;9675;51.538;6.728;2023-09-30T09:51:45;9.07;;;3.90;;
19084;SDS011;9675;51.538;6.728;2023-09-30T09:54:14;6.63;;;3.43;;
19084;SDS011;9675;51.538;6.728;2023-09-30T09:56:43;10.23;;;3.53;;
19084;SDS011;9675;51.538;6.728;2023-09-30T09:59:12;5.47;;;2.73;;
19084;SDS011;9675;51.538;6.728;2023-09-30T10:01:39;11.33;;;3.10;;
19084;SDS011;9675;51.538;6.728;2023-09-30T10:04:07;6.40;;;2.50;;
19084;SDS011;9675;51.538;6.728;2023-09-30T10:06:41;4.30;;;2.37;;
19084;SDS011;9675;51.538;6.728;2023-09-30T10:09:17;8.60;;;2.57;;
19084;SDS011;9675;51.538;6.728;2023-09-30T10:11:46;8.90;;;2.97;;
19084;SDS011;9675;51.538;6.728;2023-09-30T10:14:29;7.67;;;3.13;;
19084;SDS011;9675;51.538;6.728;2023-09-30T10:16:59;6.83;;;2.80;;
19084;SDS011;9675;51.538;6.728;2023-09-30T10:19:28;4.20;;;2.10;;
19084;SDS011;9675;51.538;6.728;2023-09-30T10:24:50;4.03;;;2.23;;
19084;SDS011;9675;51.538;6.728;2023-09-30T10:27:32;6.93;;;3.10;;
19084;SDS011;9675;51.538;6.728;2023-09-30T10:30:09;10.83;;;2.70;;
19084;SDS011;9675;51.538;6.728;2023-09-30T10:35:44;9.73;;;2.90;;
19084;SDS011;9675;51.538;6.728;2023-09-30T10:41:10;7.60;;;3.33;;
19084;SDS011;9675;51.538;6.728;2023-09-30T10:43:57;8.40;;;3.40;;
19084;SDS011;9675;51.538;6.728;2023-09-30T10:47:00;4.83;;;1.83;;
19084;SDS011;9675;51.538;6.728;2023-09-30T10:50:03;5.90;;;2.77;;
19084;SDS011;9675;51.538;6.728;2023-09-30T10:53:09;4.70;;;2.00;;
19084;SDS011;9675;51.538;6.728;2023-09-30T10:55:38;6.17;;;2.17;;
19084;SDS011;9675;51.538;6.728;2023-09-30T10:58:07;5.60;;;3.00;;
19084;SDS011;9675;51.538;6.728;2023-09-30T11:00:34;7.27;;;3.30;;
19084;SDS011;9675;51.538;6.728;2023-09-30T11:03:03;5.67;;;2.77;;
19084;SDS011;9675;51.538;6.728;2023-09-30T11:05:31;12.33;;;3.20;;
19084;SDS011;9675;51.538;6.728;2023-09-30T11:07:59;6.27;;;1.93;;
19084;SDS011;9675;51.538;6.728;2023-09-30T11:10:29;11.10;;;2.47;;
19084;SDS011;9675;51.538;6.728;2023-09-30T11:12:58;5.87;;;1.80;;
19084;SDS011;9675;51.538;6.728;2023-09-30T11:15:25;8.00;;;2.23;;
19084;SDS011;9675;51.538;6.728;2023-09-30T11:17:52;5.93;;;1.87;;
19084;SDS011;9675;51.538;6.728;2023-09-30T11:20:20;3.83;;;1.70;;
19084;SDS011;9675;51.538;6.728;2023-09-30T11:22:47;5.83;;;2.30;;
19084;SDS011;9675;51.538;6.728;2023-09-30T11:25:16;8.47;;;2.00;;
19084;SDS011;9675;51.538;6.728;2023-09-30T11:27:44;5.37;;;2.23;;
19084;SDS011;9675;51.538;6.728;2023-09-30T11:30:13;3.80;;;1.70;;
19084;SDS011;9675;51.538;6.728;2023-09-30T11:32:41;7.57;;;2.93;;
19084;SDS011;9675;51.538;6.728;2023-09-30T11:35:08;6.00;;;1.50;;
19084;SDS011;9675;51.538;6.728;2023-09-30T11:37:47;5.57;;;2.60;;
19084;SDS011;9675;51.538;6.728;2023-09-30T11:40:15;4.83;;;2.23;;
19084;SDS011;9675;51.538;6.728;2023-09-30T11:45:35;5.83;;;2.17;;
19084;SDS011;9675;51.538;6.728;2023-09-30T11:48:02;6.03;;;1.87;;
19084;SDS011;9675;51.538;6.728;2023-09-30T11:50:45;10.03;;;2.37;;
19084;SDS011;9675;51.538;6.728;2023-09-30T11:53:15;5.30;;;1.77;;
19084;SDS011;9675;51.538;6.728;2023-09-30T11:55:43;4.53;;;2.20;;
19084;SDS011;9675;51.538;6.728;2023-09-30T11:58:11;4.53;;;1.73;;
19084;SDS011;9675;51.538;6.728;2023-09-30T12:00:44;6.23;;;1.93;;
19084;SDS011;9675;51.538;6.728;2023-09-30T12:03:12;3.97;;;1.27;;
19084;SDS011;9675;51.538;6.728;2023-09-30T12:05:39;4.73;;;2.03;;
19084;SDS011;9675;51.538;6.728;2023-09-30T12:08:06;4.30;;;1.53;;
19084;SDS011;9675;51.538;6.728;2023-09-30T12:10:33;3.30;;;1.63;;
19084;SDS011;9675;51.538;6.728;2023-09-30T12:13:00;6.03;;;1.57;;
19084;SDS011;9675;51.538;6.728;2023-09-30T12:15:27;3.57;;;1.60;;
19084;SDS011;9675;51.538;6.728;2023-09-30T12:17:56;3.30;;;1.27;;
19084;SDS011;9675;51.538;6.728;2023-09-30T12:20:23;3.90;;;1.90;;
19084;SDS011;9675;51.538;6.728;2023-09-30T12:22:50;4.93;;;1.80;;
19084;SDS011;9675;51.538;6.728;2023-09-30T12:25:18;4.80;;;1.33;;
19084;SDS011;9675;51.538;6.728;2023-09-30T12:27:46;4.67;;;1.40;;
19084;SDS011;9675;51.538;6.728;2023-09-30T12:30:14;2.20;;;1.30;;
19084;SDS011;9675;51.538;6.728;2023-09-30T12:32:42;4.47;;;1.80;;
19084;SDS011;9675;51.538;6.728;2023-09-30T12:35:10;6.17;;;1.53;;
19084;SDS011;9675;51.538;6.728;2023-09-30T12:37:37;4.97;;;1.80;;
19084;SDS011;9675;51.538;6.728;2023-09-30T12:40:05;7.97;;;1.90;;
19084;SDS011;9675;51.538;6.728;2023-09-30T12:42:33;6.50;;;2.43;;
19084;SDS011;9675;51.538;6.728;2023-09-30T12:45:00;6.17;;;1.37;;
19084;SDS011;9675;51.538;6.728;2023-09-30T12:47:27;3.80;;;1.60;;
19084;SDS011;9675;51.538;6.728;2023-09-30T12:49:55;3.97;;;1.77;;
19084;SDS011;9675;51.538;6.728;2023-09-30T12:52:24;5.27;;;1.70;;
19084;SDS011;9675;51.538;6.728;2023-09-30T12:54:51;4.03;;;1.30;;
19084;SDS011;9675;51.538;6.728;2023-09-30T12:57:19;3.37;;;1.53;;
19084;SDS011;9675;51.538;6.728;2023-09-30T12:59:46;3.53;;;1.33;;
19084;SDS011;9675;51.538;6.728;2023-09-30T13:02:14;5.23;;;3.40;;
19084;SDS011;9675;51.538;6.728;2023-09-30T13:04:43;5.60;;;2.30;;
19084;SDS011;9675;51.538;6.728;2023-09-30T13:07:10;16.50;;;14.73;;
19084;SDS011;9675;51.538;6.728;2023-09-30T13:09:39;21.70;;;17.23;;
19084;SDS011;9675;51.538;6.728;2023-09-30T13:12:06;13.87;;;5.27;;
19084;SDS011;9675;51.538;6.728;2023-09-30T13:14:33;4.03;;;3.47;;
19084;SDS011;9675;51.538;6.728;2023-09-30T13:17:01;9.43;;;7.23;;
19084;SDS011;9675;51.538;6.728;2023-09-30T13:19:28;5.97;;;2.00;;
19084;SDS011;9675;51.538;6.728;2023-09-30T13:21:58;4.30;;;1.93;;
19084;SDS011;9675;51.538;6.728;2023-09-30T13:24:25;4.40;;;1.50;;
19084;SDS011;9675;51.538;6.728;2023-09-30T13:26:54;3.77;;;1.73;;
19084;SDS011;9675;51.538;6.728;2023-09-30T13:29:21;5.93;;;2.30;;
19084;SDS011;9675;51.538;6.728;2023-09-30T13:31:48;7.17;;;3.10;;
19084;SDS011;9675;51.538;6.728;2023-09-30T13:34:15;15.80;;;8.63;;
19084;SDS011;9675;51.538;6.728;2023-09-30T13:36:43;6.87;;;3.10;;
19084;SDS011;9675;51.538;6.728;2023-09-30T13:39:10;5.20;;;2.73;;
19084;SDS011;9675;51.538;6.728;2023-09-30T13:41:38;4.60;;;3.20;;
19084;SDS011;9675;51.538;6.728;2023-09-30T13:44:07;5.67;;;2.73;;
19084;SDS011;9675;51.538;6.728;2023-09-30T13:46:35;5.97;;;2.27;;
19084;SDS011;9675;51.538;6.728;2023-09-30T13:49:02;7.70;;;2.63;;
19084;SDS011;9675;51.538;6.728;2023-09-30T13:51:30;6.87;;;2.50;;
19084;SDS011;9675;51.538;6.728;2023-09-30T13:53:57;9.00;;;2.63;;
19084;SDS011;9675;51.538;6.728;2023-09-30T13:56:24;4.90;;;2.27;;
19084;SDS011;9675;51.538;6.728;2023-09-30T13:58:52;2.73;;;1.77;;
19084;SDS011;9675;51.538;6.728;2023-09-30T14:01:21;6.67;;;2.60;;
19084;SDS011;9675;51.538;6.728;2023-09-30T14:03:48;4.67;;;2.30;;
19084;SDS011;9675;51.538;6.728;2023-09-30T14:06:20;4.67;;;1.83;;
19084;SDS011;9675;51.538;6.728;2023-09-30T14:08:47;3.73;;;1.73;;
19084;SDS011;9675;51.538;6.728;2023-09-30T14:11:14;3.60;;;2.20;;
19084;SDS011;9675;51.538;6.728;2023-09-30T14:13:41;5.40;;;2.03;;
19084;SDS011;9675;51.538;6.728;2023-09-30T14:16:08;4.03;;;1.63;;
19084;SDS011;9675;51.538;6.728;2023-09-30T14:18:37;10.27;;;1.73;;
19084;SDS011;9675;51.538;6.728;2023-09-30T14:21:04;3.37;;;1.67;;
19084;SDS011;9675;51.538;6.728;2023-09-30T14:23:32;2.20;;;1.30;;
19084;SDS011;9675;51.538;6.728;2023-09-30T14:25:59;4.20;;;2.10;;
19084;SDS011;9675;51.538;6.728;2023-09-30T14:28:29;3.93;;;1.40;;
19084;SDS011;9675;51.538;6.728;2023-09-30T14:30:57;5.37;;;1.87;;
19084;SDS011;9675;51.538;6.728;2023-09-30T14:33:23;7.00;;;1.77;;
19084;SDS011;9675;51.538;6.728;2023-09-30T14:35:52;2.27;;;1.37;;
19084;SDS011;9675;51.538;6.728;2023-09-30T14:38:19;6.13;;;2.30;;
19084;SDS011;9675;51.538;6.728;2023-09-30T14:40:46;2.37;;;1.60;;
19084;SDS011;9675;51.538;6.728;2023-09-30T14:43:13;10.10;;;4.40;;
19084;SDS011;9675;51.538;6.728;2023-09-30T14:45:40;5.63;;;2.40;;
19084;SDS011;9675;51.538;6.728;2023-09-30T14:48:08;9.73;;;3.77;;
19084;SDS011;9675;51.538;6.728;2023-09-30T14:50:35;6.93;;;3.40;;
19084;SDS011;9675;51.538;6.728;2023-09-30T14:53:04;5.63;;;2.40;;
19084;SDS011;9675;51.538;6.728;2023-09-30T14:55:31;4.33;;;2.90;;
19084;SDS011;9675;51.538;6.728;2023-09-30T14:57:58;5.93;;;2.20;;
19084;SDS011;9675;51.538;6.728;2023-09-30T15:00:26;5.30;;;2.00;;
19084;SDS011;9675;51.538;6.728;2023-09-30T15:02:53;3.00;;;1.90;;
19084;SDS011;9675;51.538;6.728;2023-09-30T15:05:20;4.60;;;2.13;;
19084;SDS011;9675;51.538;6.728;2023-09-30T15:07:48;6.50;;;2.10;;
19084;SDS011;9675;51.538;6.728;2023-09-30T15:10:17;3.27;;;2.23;;
19084;SDS011;9675;51.538;6.728;2023-09-30T15:12:44;6.43;;;1.80;;
19084;SDS011;9675;51.538;6.728;2023-09-30T15:15:11;3.53;;;1.43;;
19084;SDS011;9675;51.538;6.728;2023-09-30T15:17:39;3.00;;;1.80;;